sensor_id;sensor_type;location;lat;lon;timestamp;P1;durP1;ratioP1;P2;durP2;ratioP2
7527;SDS011;3805;49.006;8.514;2023-11-18T00:01:30;11.87;;;10.67;;
7527;SDS011;3805;49.006;8.514;2023-11-18T00:03:59;17.70;;;11.50;;
7527;SDS011;3805;49.006;8.514;2023-11-18T00:06:28;13.83;;;12.33;;
7527;SDS011;3805;49.006;8.514;2023-11-18T00:08:56;12.17;;;11.07;;
7527;SDS011;3805;49.006;8.514;2023-11-18T00:11:25;15.60;;;11.60;;
7527;SDS011;3805;49.006;8.514;2023-11-18T00:13:54;14.13;;;12.50;;
7527;SDS011;3805;49.006;8.514;2023-11-18T00:16:22;13.13;;;11.73;;
7527;SDS011;3805;49.006;8.514;2023-11-18T00:18:50;11.57;;;10.33;;
7527;SDS011;3805;49.006;8.514;2023-11-18T00:21:20;12.80;;;10.93;;
7527;SDS011;3805;49.006;8.514;2023-11-18T00:23:48;12.17;;;10.93;;
7527;SDS011;3805;49.006;8.514;2023-11-18T00:26:16;13.50;;;10.30;;
7527;SDS011;3805;49.006;8.514;2023-11-18T00:28:46;13.27;;;11.33;;
7527;SDS011;3805;49.006;8.514;2023-11-18T00:31:15;14.27;;;10.53;;
7527;SDS011;3805;49.006;8.514;2023-11-18T00:33:43;12.57;;;9.83;;
7527;SDS011;3805;49.006;8.514;2023-11-18T00:36:12;14.60;;;11.10;;
7527;SDS011;3805;49.006;8.514;2023-11-18T00:38:43;12.10;;;10.67;;
7527;SDS011;3805;49.006;8.514;2023-11-18T00:41:11;13.70;;;10.07;;
7527;SDS011;3805;49.006;8.514;2023-11-18T00:43:39;13.00;;;10.87;;
7527;SDS011;3805;49.006;8.514;2023-11-18T00:46:09;13.57;;;11.03;;
7527;SDS011;3805;49.006;8.514;2023-11-18T00:48:40;12.20;;;11.00;;
7527;SDS011;3805;49.006;8.514;2023-11-18T00:51:08;15.17;;;11.77;;
7527;SDS011;3805;49.006;8.514;2023-11-18T00:53:36;12.87;;;11.57;;
7527;SDS011;3805;49.006;8.514;2023-11-18T00:56:05;11.90;;;9.37;;
7527;SDS011;3805;49.006;8.514;2023-11-18T00:58:36;11.27;;;9.00;;
7527;SDS011;3805;49.006;8.514;2023-11-18T01:01:07;11.43;;;9.83;;
7527;SDS011;3805;49.006;8.514;2023-11-18T01:03:36;12.30;;;10.40;;
7527;SDS011;3805;49.006;8.514;2023-11-18T01:06:05;12.10;;;9.63;;
7527;SDS011;3805;49.006;8.514;2023-11-18T01:08:34;12.97;;;10.40;;
7527;SDS011;3805;49.006;8.514;2023-11-18T01:11:02;11.43;;;9.23;;
7527;SDS011;3805;49.006;8.514;2023-11-18T01:13:31;11.70;;;10.17;;
7527;SDS011;3805;49.006;8.514;2023-11-18T01:15:59;11.77;;;10.40;;
7527;SDS011;3805;49.006;8.514;2023-11-18T01:18:28;11.63;;;10.30;;
7527;SDS011;3805;49.006;8.514;2023-11-18T01:20:58;11.47;;;9.37;;
7527;SDS011;3805;49.006;8.514;2023-11-18T01:23:29;13.17;;;10.43;;
7527;SDS011;3805;49.006;8.514;2023-11-18T01:25:57;10.80;;;9.70;;
7527;SDS011;3805;49.006;8.514;2023-11-18T01:28:29;15.87;;;9.90;;
7527;SDS011;3805;49.006;8.514;2023-11-18T01:30:59;10.07;;;8.30;;
7527;SDS011;3805;49.006;8.514;2023-11-18T01:33:27;10.40;;;8.10;;
7527;SDS011;3805;49.006;8.514;2023-11-18T01:35:56;10.10;;;8.20;;
7527;SDS011;3805;49.006;8.514;2023-11-18T01:38:25;9.93;;;8.23;;
7527;SDS011;3805;49.006;8.514;2023-11-18T01:40:54;10.00;;;9.00;;
7527;SDS011;3805;49.006;8.514;2023-11-18T01:43:22;9.47;;;7.50;;
7527;SDS011;3805;49.006;8.514;2023-11-18T01:45:50;9.10;;;7.50;;
7527;SDS011;3805;49.006;8.514;2023-11-18T01:48:20;8.77;;;7.87;;
7527;SDS011;3805;49.006;8.514;2023-11-18T01:50:49;7.93;;;6.63;;
7527;SDS011;3805;49.006;8.514;2023-11-18T01:53:18;7.63;;;6.80;;
7527;SDS011;3805;49.006;8.514;2023-11-18T01:55:47;12.00;;;8.00;;
7527;SDS011;3805;49.006;8.514;2023-11-18T01:58:16;9.90;;;8.90;;
7527;SDS011;3805;49.006;8.514;2023-11-18T02:00:46;12.13;;;8.73;;
7527;SDS011;3805;49.006;8.514;2023-11-18T02:03:14;9.10;;;7.00;;
7527;SDS011;3805;49.006;8.514;2023-11-18T02:05:43;10.03;;;8.10;;
7527;SDS011;3805;49.006;8.514;2023-11-18T02:08:12;13.10;;;7.50;;
7527;SDS011;3805;49.006;8.514;2023-11-18T02:10:45;10.20;;;8.40;;
7527;SDS011;3805;49.006;8.514;2023-11-18T02:13:20;12.87;;;8.20;;
7527;SDS011;3805;49.006;8.514;2023-11-18T02:15:52;10.13;;;8.53;;
7527;SDS011;3805;49.006;8.514;2023-11-18T02:18:24;9.83;;;7.73;;
7527;SDS011;3805;49.006;8.514;2023-11-18T02:20:53;7.90;;;6.73;;
7527;SDS011;3805;49.006;8.514;2023-11-18T02:23:24;9.13;;;8.23;;
7527;SDS011;3805;49.006;8.514;2023-11-18T02:25:54;8.53;;;7.67;;
7527;SDS011;3805;49.006;8.514;2023-11-18T02:28:23;8.80;;;7.90;;
7527;SDS011;3805;49.006;8.514;2023-11-18T02:31:00;8.60;;;7.80;;
7527;SDS011;3805;49.006;8.514;2023-11-18T02:33:33;9.93;;;7.30;;
7527;SDS011;3805;49.006;8.514;2023-11-18T02:36:09;7.50;;;6.80;;
7527;SDS011;3805;49.006;8.514;2023-11-18T02:38:43;6.80;;;6.13;;
7527;SDS011;3805;49.006;8.514;2023-11-18T02:41:17;7.53;;;6.60;;
7527;SDS011;3805;49.006;8.514;2023-11-18T02:43:46;8.30;;;7.50;;
7527;SDS011;3805;49.006;8.514;2023-11-18T02:46:14;7.13;;;6.50;;
7527;SDS011;3805;49.006;8.514;2023-11-18T02:48:44;6.40;;;5.90;;
7527;SDS011;3805;49.006;8.514;2023-11-18T02:51:13;8.57;;;6.43;;
7527;SDS011;3805;49.006;8.514;2023-11-18T02:53:43;6.90;;;6.30;;
7527;SDS011;3805;49.006;8.514;2023-11-18T02:56:11;7.37;;;6.70;;
7527;SDS011;3805;49.006;8.514;2023-11-18T02:58:41;9.00;;;7.20;;
7527;SDS011;3805;49.006;8.514;2023-11-18T03:01:09;8.13;;;7.20;;
7527;SDS011;3805;49.006;8.514;2023-11-18T03:03:38;7.90;;;7.13;;
7527;SDS011;3805;49.006;8.514;2023-11-18T03:06:06;7.67;;;6.93;;
7527;SDS011;3805;49.006;8.514;2023-11-18T03:08:35;8.70;;;7.80;;
7527;SDS011;3805;49.006;8.514;2023-11-18T03:11:03;7.60;;;6.80;;
7527;SDS011;3805;49.006;8.514;2023-11-18T03:13:32;9.03;;;8.23;;
7527;SDS011;3805;49.006;8.514;2023-11-18T03:16:01;8.13;;;7.47;;
7527;SDS011;3805;49.006;8.514;2023-11-18T03:18:31;7.80;;;7.10;;
7527;SDS011;3805;49.006;8.514;2023-11-18T03:20:59;8.43;;;7.53;;
7527;SDS011;3805;49.006;8.514;2023-11-18T03:23:27;8.43;;;7.40;;
7527;SDS011;3805;49.006;8.514;2023-11-18T03:25:55;10.17;;;8.97;;
7527;SDS011;3805;49.006;8.514;2023-11-18T03:28:24;11.53;;;7.47;;
7527;SDS011;3805;49.006;8.514;2023-11-18T03:30:53;10.20;;;8.90;;
7527;SDS011;3805;49.006;8.514;2023-11-18T03:33:23;11.10;;;8.77;;
7527;SDS011;3805;49.006;8.514;2023-11-18T03:35:51;12.60;;;9.30;;
7527;SDS011;3805;49.006;8.514;2023-11-18T03:38:22;11.73;;;9.73;;
7527;SDS011;3805;49.006;8.514;2023-11-18T03:40:50;12.50;;;9.70;;
7527;SDS011;3805;49.006;8.514;2023-11-18T03:43:19;10.40;;;8.87;;
7527;SDS011;3805;49.006;8.514;2023-11-18T03:45:47;10.20;;;8.20;;
7527;SDS011;3805;49.006;8.514;2023-11-18T03:48:16;8.03;;;7.30;;
7527;SDS011;3805;49.006;8.514;2023-11-18T03:50:46;8.20;;;7.40;;
7527;SDS011;3805;49.006;8.514;2023-11-18T03:53:14;8.57;;;7.77;;
7527;SDS011;3805;49.006;8.514;2023-11-18T03:55:43;8.53;;;7.73;;
7527;SDS011;3805;49.006;8.514;2023-11-18T03:58:10;9.33;;;8.43;;
7527;SDS011;3805;49.006;8.514;2023-11-18T04:00:38;11.90;;;8.50;;
7527;SDS011;3805;49.006;8.514;2023-11-18T04:03:06;10.47;;;7.63;;
7527;SDS011;3805;49.006;8.514;2023-11-18T04:05:36;10.43;;;8.87;;
7527;SDS011;3805;49.006;8.514;2023-11-18T04:08:07;9.67;;;8.77;;
7527;SDS011;3805;49.006;8.514;2023-11-18T04:10:35;8.67;;;7.80;;
7527;SDS011;3805;49.006;8.514;2023-11-18T04:13:05;8.77;;;8.00;;
7527;SDS011;3805;49.006;8.514;2023-11-18T04:15:38;6.73;;;6.03;;
7527;SDS011;3805;49.006;8.514;2023-11-18T04:18:07;7.70;;;6.87;;
7527;SDS011;3805;49.006;8.514;2023-11-18T04:20:35;8.47;;;7.67;;
7527;SDS011;3805;49.006;8.514;2023-11-18T04:23:03;8.80;;;7.90;;
7527;SDS011;3805;49.006;8.514;2023-11-18T04:25:34;9.00;;;7.73;;
7527;SDS011;3805;49.006;8.514;2023-11-18T04:28:02;9.50;;;8.33;;
7527;SDS011;3805;49.006;8.514;2023-11-18T04:30:31;10.43;;;8.10;;
7527;SDS011;3805;49.006;8.514;2023-11-18T04:32:59;7.40;;;6.80;;
7527;SDS011;3805;49.006;8.514;2023-11-18T04:35:28;11.37;;;7.50;;
7527;SDS011;3805;49.006;8.514;2023-11-18T04:37:57;9.47;;;8.50;;
7527;SDS011;3805;49.006;8.514;2023-11-18T04:40:25;10.20;;;9.03;;
7527;SDS011;3805;49.006;8.514;2023-11-18T04:42:55;7.77;;;7.07;;
7527;SDS011;3805;49.006;8.514;2023-11-18T04:45:23;9.10;;;8.00;;
7527;SDS011;3805;49.006;8.514;2023-11-18T04:47:51;12.70;;;10.90;;
7527;SDS011;3805;49.006;8.514;2023-11-18T04:50:21;9.43;;;8.50;;
7527;SDS011;3805;49.006;8.514;2023-11-18T04:52:49;14.50;;;10.03;;
7527;SDS011;3805;49.006;8.514;2023-11-18T04:55:18;11.30;;;10.20;;
7527;SDS011;3805;49.006;8.514;2023-11-18T04:57:47;10.40;;;9.40;;
7527;SDS011;3805;49.006;8.514;2023-11-18T05:00:16;9.77;;;8.77;;
7527;SDS011;3805;49.006;8.514;2023-11-18T05:02:46;9.80;;;8.90;;
7527;SDS011;3805;49.006;8.514;2023-11-18T05:05:15;13.17;;;10.20;;
7527;SDS011;3805;49.006;8.514;2023-11-18T05:07:44;12.00;;;10.83;;
7527;SDS011;3805;49.006;8.514;2023-11-18T05:10:12;15.67;;;12.17;;
7527;SDS011;3805;49.006;8.514;2023-11-18T05:12:41;26.30;;;13.20;;
7527;SDS011;3805;49.006;8.514;2023-11-18T05:15:10;14.17;;;12.20;;
7527;SDS011;3805;49.006;8.514;2023-11-18T05:17:41;16.57;;;12.17;;
7527;SDS011;3805;49.006;8.514;2023-11-18T05:20:09;18.27;;;14.00;;
7527;SDS011;3805;49.006;8.514;2023-11-18T05:22:38;21.13;;;13.77;;
7527;SDS011;3805;49.006;8.514;2023-11-18T05:25:06;16.73;;;13.20;;
7527;SDS011;3805;49.006;8.514;2023-11-18T05:27:36;18.60;;;13.17;;
7527;SDS011;3805;49.006;8.514;2023-11-18T05:30:07;17.50;;;14.03;;
7527;SDS011;3805;49.006;8.514;2023-11-18T05:32:36;19.13;;;13.97;;
7527;SDS011;3805;49.006;8.514;2023-11-18T05:35:06;21.10;;;14.80;;
7527;SDS011;3805;49.006;8.514;2023-11-18T05:37:38;18.10;;;13.30;;
7527;SDS011;3805;49.006;8.514;2023-11-18T05:40:08;22.10;;;14.33;;
7527;SDS011;3805;49.006;8.514;2023-11-18T05:42:38;19.70;;;15.07;;
7527;SDS011;3805;49.006;8.514;2023-11-18T05:45:09;19.13;;;14.87;;
7527;SDS011;3805;49.006;8.514;2023-11-18T05:47:44;20.13;;;15.50;;
7527;SDS011;3805;49.006;8.514;2023-11-18T05:50:14;19.03;;;13.90;;
7527;SDS011;3805;49.006;8.514;2023-11-18T05:52:43;23.80;;;14.40;;
7527;SDS011;3805;49.006;8.514;2023-11-18T05:55:11;19.57;;;13.07;;
7527;SDS011;3805;49.006;8.514;2023-11-18T05:57:39;20.30;;;14.93;;
7527;SDS011;3805;49.006;8.514;2023-11-18T06:00:09;17.00;;;13.80;;
7527;SDS011;3805;49.006;8.514;2023-11-18T06:02:48;20.87;;;14.80;;
7527;SDS011;3805;49.006;8.514;2023-11-18T06:05:18;20.00;;;14.97;;
7527;SDS011;3805;49.006;8.514;2023-11-18T06:07:46;16.30;;;13.43;;
7527;SDS011;3805;49.006;8.514;2023-11-18T06:10:15;21.03;;;14.40;;
7527;SDS011;3805;49.006;8.514;2023-11-18T06:12:43;18.17;;;13.37;;
7527;SDS011;3805;49.006;8.514;2023-11-18T06:15:11;18.50;;;14.40;;
7527;SDS011;3805;49.006;8.514;2023-11-18T06:17:43;24.60;;;14.63;;
7527;SDS011;3805;49.006;8.514;2023-11-18T06:20:12;21.87;;;14.27;;
7527;SDS011;3805;49.006;8.514;2023-11-18T06:22:45;16.37;;;12.60;;
7527;SDS011;3805;49.006;8.514;2023-11-18T06:25:13;16.37;;;12.87;;
7527;SDS011;3805;49.006;8.514;2023-11-18T06:27:43;17.53;;;11.10;;
7527;SDS011;3805;49.006;8.514;2023-11-18T06:30:14;13.17;;;10.30;;
7527;SDS011;3805;49.006;8.514;2023-11-18T06:32:42;12.60;;;9.87;;
7527;SDS011;3805;49.006;8.514;2023-11-18T06:35:11;8.87;;;8.00;;
7527;SDS011;3805;49.006;8.514;2023-11-18T06:37:40;8.90;;;7.70;;
7527;SDS011;3805;49.006;8.514;2023-11-18T06:40:11;17.60;;;9.87;;
7527;SDS011;3805;49.006;8.514;2023-11-18T06:42:45;8.97;;;7.77;;
7527;SDS011;3805;49.006;8.514;2023-11-18T06:45:14;9.43;;;8.43;;
7527;SDS011;3805;49.006;8.514;2023-11-18T06:47:43;9.07;;;8.20;;
7527;SDS011;3805;49.006;8.514;2023-11-18T06:50:12;12.60;;;9.87;;
7527;SDS011;3805;49.006;8.514;2023-11-18T06:52:42;9.97;;;8.70;;
7527;SDS011;3805;49.006;8.514;2023-11-18T06:55:15;9.83;;;8.70;;
7527;SDS011;3805;49.006;8.514;2023-11-18T06:57:44;11.13;;;9.70;;
7527;SDS011;3805;49.006;8.514;2023-11-18T07:00:13;9.10;;;8.20;;
7527;SDS011;3805;49.006;8.514;2023-11-18T07:02:42;11.47;;;9.37;;
7527;SDS011;3805;49.006;8.514;2023-11-18T07:05:11;11.90;;;9.07;;
7527;SDS011;3805;49.006;8.514;2023-11-18T07:07:41;13.53;;;9.90;;
7527;SDS011;3805;49.006;8.514;2023-11-18T07:10:11;11.93;;;9.70;;
7527;SDS011;3805;49.006;8.514;2023-11-18T07:12:41;13.47;;;10.07;;
7527;SDS011;3805;49.006;8.514;2023-11-18T07:15:10;12.80;;;10.23;;
7527;SDS011;3805;49.006;8.514;2023-11-18T07:17:38;15.20;;;9.70;;
7527;SDS011;3805;49.006;8.514;2023-11-18T07:20:07;9.97;;;8.97;;
7527;SDS011;3805;49.006;8.514;2023-11-18T07:22:40;12.00;;;9.00;;
7527;SDS011;3805;49.006;8.514;2023-11-18T07:25:08;10.20;;;9.13;;
7527;SDS011;3805;49.006;8.514;2023-11-18T07:27:37;11.40;;;9.70;;
7527;SDS011;3805;49.006;8.514;2023-11-18T07:30:07;8.50;;;7.60;;
7527;SDS011;3805;49.006;8.514;2023-11-18T07:32:37;9.40;;;7.63;;
7527;SDS011;3805;49.006;8.514;2023-11-18T07:35:07;8.90;;;7.87;;
7527;SDS011;3805;49.006;8.514;2023-11-18T07:37:36;12.37;;;7.00;;
7527;SDS011;3805;49.006;8.514;2023-11-18T07:40:05;6.50;;;5.70;;
7527;SDS011;3805;49.006;8.514;2023-11-18T07:42:38;6.20;;;5.70;;
7527;SDS011;3805;49.006;8.514;2023-11-18T07:45:09;7.20;;;5.03;;
7527;SDS011;3805;49.006;8.514;2023-11-18T07:47:45;6.83;;;5.87;;
7527;SDS011;3805;49.006;8.514;2023-11-18T07:50:16;5.90;;;4.93;;
7527;SDS011;3805;49.006;8.514;2023-11-18T07:52:46;6.00;;;5.50;;
7527;SDS011;3805;49.006;8.514;2023-11-18T07:55:15;7.37;;;6.67;;
7527;SDS011;3805;49.006;8.514;2023-11-18T07:57:45;5.83;;;5.33;;
7527;SDS011;3805;49.006;8.514;2023-11-18T08:00:15;6.00;;;5.50;;
7527;SDS011;3805;49.006;8.514;2023-11-18T08:02:44;5.43;;;4.93;;
7527;SDS011;3805;49.006;8.514;2023-11-18T08:05:13;5.30;;;4.63;;
7527;SDS011;3805;49.006;8.514;2023-11-18T08:07:42;5.87;;;5.27;;
7527;SDS011;3805;49.006;8.514;2023-11-18T08:10:12;4.63;;;4.30;;
7527;SDS011;3805;49.006;8.514;2023-11-18T08:12:46;7.10;;;5.83;;
7527;SDS011;3805;49.006;8.514;2023-11-18T08:15:16;6.50;;;5.27;;
7527;SDS011;3805;49.006;8.514;2023-11-18T08:17:45;5.60;;;5.20;;
7527;SDS011;3805;49.006;8.514;2023-11-18T08:20:14;6.20;;;5.47;;
7527;SDS011;3805;49.006;8.514;2023-11-18T08:22:42;6.10;;;5.60;;
7527;SDS011;3805;49.006;8.514;2023-11-18T08:25:12;6.67;;;6.07;;
7527;SDS011;3805;49.006;8.514;2023-11-18T08:27:42;5.80;;;5.30;;
7527;SDS011;3805;49.006;8.514;2023-11-18T08:30:10;5.93;;;5.53;;
7527;SDS011;3805;49.006;8.514;2023-11-18T08:32:41;7.57;;;6.23;;
7527;SDS011;3805;49.006;8.514;2023-11-18T08:35:11;5.47;;;4.80;;
7527;SDS011;3805;49.006;8.514;2023-11-18T08:37:41;5.00;;;4.60;;
7527;SDS011;3805;49.006;8.514;2023-11-18T08:40:11;5.07;;;4.57;;
7527;SDS011;3805;49.006;8.514;2023-11-18T08:42:42;6.30;;;4.63;;
7527;SDS011;3805;49.006;8.514;2023-11-18T08:45:15;5.43;;;4.90;;
7527;SDS011;3805;49.006;8.514;2023-11-18T08:47:47;4.53;;;4.13;;
7527;SDS011;3805;49.006;8.514;2023-11-18T08:50:15;5.83;;;5.23;;
7527;SDS011;3805;49.006;8.514;2023-11-18T08:52:44;4.10;;;3.80;;
7527;SDS011;3805;49.006;8.514;2023-11-18T08:55:14;5.50;;;5.00;;
7527;SDS011;3805;49.006;8.514;2023-11-18T08:57:48;4.10;;;3.90;;
7527;SDS011;3805;49.006;8.514;2023-11-18T09:00:25;4.40;;;4.00;;
7527;SDS011;3805;49.006;8.514;2023-11-18T09:03:13;4.33;;;3.93;;
7527;SDS011;3805;49.006;8.514;2023-11-18T09:05:51;9.90;;;7.37;;
7527;SDS011;3805;49.006;8.514;2023-11-18T09:08:31;8.27;;;6.50;;
7527;SDS011;3805;49.006;8.514;2023-11-18T09:11:02;7.43;;;5.80;;
7527;SDS011;3805;49.006;8.514;2023-11-18T09:13:32;7.03;;;6.43;;
7527;SDS011;3805;49.006;8.514;2023-11-18T09:16:02;5.47;;;4.70;;
7527;SDS011;3805;49.006;8.514;2023-11-18T09:18:36;5.50;;;5.10;;
7527;SDS011;3805;49.006;8.514;2023-11-18T09:21:09;3.97;;;3.57;;
7527;SDS011;3805;49.006;8.514;2023-11-18T09:23:42;4.87;;;4.20;;
7527;SDS011;3805;49.006;8.514;2023-11-18T09:26:12;4.67;;;4.30;;
7527;SDS011;3805;49.006;8.514;2023-11-18T09:28:42;10.33;;;4.57;;
7527;SDS011;3805;49.006;8.514;2023-11-18T09:31:11;4.70;;;4.13;;
7527;SDS011;3805;49.006;8.514;2023-11-18T09:33:41;4.77;;;3.67;;
7527;SDS011;3805;49.006;8.514;2023-11-18T09:36:14;4.57;;;4.17;;
7527;SDS011;3805;49.006;8.514;2023-11-18T09:38:45;5.07;;;4.57;;
7527;SDS011;3805;49.006;8.514;2023-11-18T09:41:15;7.10;;;4.27;;
7527;SDS011;3805;49.006;8.514;2023-11-18T09:43:44;6.10;;;4.43;;
7527;SDS011;3805;49.006;8.514;2023-11-18T09:46:21;3.83;;;3.63;;
7527;SDS011;3805;49.006;8.514;2023-11-18T09:48:53;3.93;;;3.63;;
7527;SDS011;3805;49.006;8.514;2023-11-18T09:51:27;3.60;;;3.30;;
7527;SDS011;3805;49.006;8.514;2023-11-18T09:53:59;3.80;;;3.20;;
7527;SDS011;3805;49.006;8.514;2023-11-18T09:56:30;4.40;;;4.00;;
7527;SDS011;3805;49.006;8.514;2023-11-18T09:59:07;4.63;;;4.23;;
7527;SDS011;3805;49.006;8.514;2023-11-18T10:01:43;4.97;;;4.67;;
7527;SDS011;3805;49.006;8.514;2023-11-18T10:04:14;3.73;;;3.43;;
7527;SDS011;3805;49.006;8.514;2023-11-18T10:06:45;3.50;;;3.10;;
7527;SDS011;3805;49.006;8.514;2023-11-18T10:09:15;2.90;;;2.70;;
7527;SDS011;3805;49.006;8.514;2023-11-18T10:11:46;3.40;;;3.10;;
7527;SDS011;3805;49.006;8.514;2023-11-18T10:14:15;3.90;;;3.60;;
7527;SDS011;3805;49.006;8.514;2023-11-18T10:16:44;3.23;;;3.03;;
7527;SDS011;3805;49.006;8.514;2023-11-18T10:19:16;4.57;;;3.57;;
7527;SDS011;3805;49.006;8.514;2023-11-18T10:21:45;3.60;;;3.30;;
7527;SDS011;3805;49.006;8.514;2023-11-18T10:24:17;5.20;;;2.93;;
7527;SDS011;3805;49.006;8.514;2023-11-18T10:26:54;5.10;;;4.60;;
7527;SDS011;3805;49.006;8.514;2023-11-18T10:29:24;3.77;;;3.40;;
7527;SDS011;3805;49.006;8.514;2023-11-18T10:32:03;4.40;;;4.00;;
7527;SDS011;3805;49.006;8.514;2023-11-18T10:34:36;3.83;;;3.53;;
7527;SDS011;3805;49.006;8.514;2023-11-18T10:37:06;3.20;;;2.93;;
7527;SDS011;3805;49.006;8.514;2023-11-18T10:39:37;2.70;;;2.50;;
7527;SDS011;3805;49.006;8.514;2023-11-18T10:42:06;3.63;;;3.33;;
7527;SDS011;3805;49.006;8.514;2023-11-18T10:44:34;2.60;;;2.40;;
7527;SDS011;3805;49.006;8.514;2023-11-18T10:47:03;3.50;;;3.20;;
7527;SDS011;3805;49.006;8.514;2023-11-18T10:49:31;3.87;;;3.27;;
7527;SDS011;3805;49.006;8.514;2023-11-18T10:52:06;3.63;;;3.33;;
7527;SDS011;3805;49.006;8.514;2023-11-18T10:54:35;3.43;;;3.13;;
7527;SDS011;3805;49.006;8.514;2023-11-18T10:57:04;3.43;;;3.10;;
7527;SDS011;3805;49.006;8.514;2023-11-18T10:59:35;5.20;;;3.20;;
7527;SDS011;3805;49.006;8.514;2023-11-18T11:02:17;3.67;;;3.30;;
7527;SDS011;3805;49.006;8.514;2023-11-18T11:04:48;3.50;;;3.20;;
7527;SDS011;3805;49.006;8.514;2023-11-18T11:07:18;3.50;;;3.20;;
7527;SDS011;3805;49.006;8.514;2023-11-18T11:09:47;5.03;;;3.10;;
7527;SDS011;3805;49.006;8.514;2023-11-18T11:12:16;3.77;;;3.57;;
7527;SDS011;3805;49.006;8.514;2023-11-18T11:14:46;3.73;;;3.30;;
7527;SDS011;3805;49.006;8.514;2023-11-18T11:17:21;3.93;;;3.67;;
7527;SDS011;3805;49.006;8.514;2023-11-18T11:19:59;3.67;;;3.40;;
7527;SDS011;3805;49.006;8.514;2023-11-18T11:22:49;3.57;;;3.13;;
7527;SDS011;3805;49.006;8.514;2023-11-18T11:25:28;3.77;;;3.50;;
7527;SDS011;3805;49.006;8.514;2023-11-18T11:28:05;3.43;;;2.70;;
7527;SDS011;3805;49.006;8.514;2023-11-18T11:30:39;4.73;;;3.00;;
7527;SDS011;3805;49.006;8.514;2023-11-18T11:33:13;3.47;;;3.27;;
7527;SDS011;3805;49.006;8.514;2023-11-18T11:35:45;4.10;;;3.80;;
7527;SDS011;3805;49.006;8.514;2023-11-18T11:38:18;4.20;;;3.90;;
7527;SDS011;3805;49.006;8.514;2023-11-18T11:40:46;3.90;;;3.20;;
7527;SDS011;3805;49.006;8.514;2023-11-18T11:43:16;3.57;;;3.27;;
7527;SDS011;3805;49.006;8.514;2023-11-18T11:45:49;3.40;;;3.03;;
7527;SDS011;3805;49.006;8.514;2023-11-18T11:48:18;5.23;;;3.20;;
7527;SDS011;3805;49.006;8.514;2023-11-18T11:51:02;3.60;;;2.90;;
7527;SDS011;3805;49.006;8.514;2023-11-18T11:53:45;3.57;;;3.27;;
7527;SDS011;3805;49.006;8.514;2023-11-18T11:56:16;4.00;;;3.70;;
7527;SDS011;3805;49.006;8.514;2023-11-18T11:58:48;3.63;;;2.47;;
7527;SDS011;3805;49.006;8.514;2023-11-18T12:01:24;3.33;;;3.03;;
7527;SDS011;3805;49.006;8.514;2023-11-18T12:03:59;3.17;;;2.83;;
7527;SDS011;3805;49.006;8.514;2023-11-18T12:06:33;4.60;;;3.10;;
7527;SDS011;3805;49.006;8.514;2023-11-18T12:09:04;2.77;;;2.57;;
7527;SDS011;3805;49.006;8.514;2023-11-18T12:11:33;2.83;;;2.60;;
7527;SDS011;3805;49.006;8.514;2023-11-18T12:14:06;3.50;;;3.20;;
7527;SDS011;3805;49.006;8.514;2023-11-18T12:17:00;3.13;;;2.27;;
7527;SDS011;3805;49.006;8.514;2023-11-18T12:19:34;7.53;;;3.10;;
7527;SDS011;3805;49.006;8.514;2023-11-18T12:22:16;3.30;;;3.00;;
7527;SDS011;3805;49.006;8.514;2023-11-18T12:28:00;3.07;;;2.83;;
7527;SDS011;3805;49.006;8.514;2023-11-18T12:30:38;3.90;;;3.50;;
7527;SDS011;3805;49.006;8.514;2023-11-18T12:33:19;4.40;;;4.03;;
7527;SDS011;3805;49.006;8.514;2023-11-18T12:36:03;4.03;;;3.63;;
7527;SDS011;3805;49.006;8.514;2023-11-18T12:39:14;5.80;;;4.17;;
7527;SDS011;3805;49.006;8.514;2023-11-18T12:42:02;3.73;;;3.43;;
7527;SDS011;3805;49.006;8.514;2023-11-18T12:44:47;4.17;;;3.77;;
7527;SDS011;3805;49.006;8.514;2023-11-18T12:47:29;4.00;;;3.30;;
7527;SDS011;3805;49.006;8.514;2023-11-18T12:49:59;4.23;;;3.63;;
7527;SDS011;3805;49.006;8.514;2023-11-18T12:52:28;3.07;;;2.87;;
7527;SDS011;3805;49.006;8.514;2023-11-18T12:54:57;4.33;;;3.20;;
7527;SDS011;3805;49.006;8.514;2023-11-18T12:57:26;5.03;;;3.50;;
7527;SDS011;3805;49.006;8.514;2023-11-18T13:00:00;3.30;;;3.10;;
7527;SDS011;3805;49.006;8.514;2023-11-18T13:02:31;4.07;;;2.87;;
7527;SDS011;3805;49.006;8.514;2023-11-18T13:05:03;3.17;;;2.87;;
7527;SDS011;3805;49.006;8.514;2023-11-18T13:07:35;3.50;;;3.30;;
7527;SDS011;3805;49.006;8.514;2023-11-18T13:10:05;3.20;;;2.87;;
7527;SDS011;3805;49.006;8.514;2023-11-18T13:12:34;3.77;;;3.43;;
7527;SDS011;3805;49.006;8.514;2023-11-18T13:15:05;4.70;;;3.27;;
7527;SDS011;3805;49.006;8.514;2023-11-18T13:17:35;21.60;;;14.07;;
7527;SDS011;3805;49.006;8.514;2023-11-18T13:22:51;4.63;;;3.83;;
7527;SDS011;3805;49.006;8.514;2023-11-18T13:25:22;5.07;;;4.73;;
7527;SDS011;3805;49.006;8.514;2023-11-18T13:27:51;4.27;;;3.97;;
7527;SDS011;3805;49.006;8.514;2023-11-18T13:30:22;6.17;;;5.60;;
7527;SDS011;3805;49.006;8.514;2023-11-18T13:32:51;8.60;;;5.23;;
7527;SDS011;3805;49.006;8.514;2023-11-18T13:35:19;6.60;;;5.20;;
7527;SDS011;3805;49.006;8.514;2023-11-18T13:37:50;7.40;;;5.27;;
7527;SDS011;3805;49.006;8.514;2023-11-18T13:40:20;5.73;;;5.00;;
7527;SDS011;3805;49.006;8.514;2023-11-18T13:43:00;4.90;;;4.33;;
7527;SDS011;3805;49.006;8.514;2023-11-18T13:45:31;7.67;;;5.20;;
7527;SDS011;3805;49.006;8.514;2023-11-18T13:48:04;7.33;;;5.93;;
7527;SDS011;3805;49.006;8.514;2023-11-18T13:50:35;6.50;;;6.00;;
7527;SDS011;3805;49.006;8.514;2023-11-18T13:53:04;7.93;;;5.17;;
7527;SDS011;3805;49.006;8.514;2023-11-18T13:55:33;5.97;;;5.37;;
7527;SDS011;3805;49.006;8.514;2023-11-18T13:58:02;6.67;;;5.77;;
7527;SDS011;3805;49.006;8.514;2023-11-18T14:00:33;7.87;;;5.70;;
7527;SDS011;3805;49.006;8.514;2023-11-18T14:03:03;7.67;;;6.20;;
7527;SDS011;3805;49.006;8.514;2023-11-18T14:05:33;7.93;;;6.70;;
7527;SDS011;3805;49.006;8.514;2023-11-18T14:08:02;6.13;;;5.00;;
7527;SDS011;3805;49.006;8.514;2023-11-18T14:10:37;6.87;;;6.20;;
7527;SDS011;3805;49.006;8.514;2023-11-18T14:13:08;7.40;;;5.57;;
7527;SDS011;3805;49.006;8.514;2023-11-18T14:15:41;12.63;;;9.47;;
7527;SDS011;3805;49.006;8.514;2023-11-18T14:18:12;10.33;;;7.70;;
7527;SDS011;3805;49.006;8.514;2023-11-18T14:20:41;7.17;;;6.47;;
7527;SDS011;3805;49.006;8.514;2023-11-18T14:23:09;8.30;;;6.50;;
7527;SDS011;3805;49.006;8.514;2023-11-18T14:25:38;6.50;;;5.07;;
7527;SDS011;3805;49.006;8.514;2023-11-18T14:28:06;5.67;;;4.93;;
7527;SDS011;3805;49.006;8.514;2023-11-18T14:30:36;6.63;;;4.60;;
7527;SDS011;3805;49.006;8.514;2023-11-18T14:33:05;5.07;;;4.17;;
7527;SDS011;3805;49.006;8.514;2023-11-18T14:35:34;3.90;;;3.60;;
7527;SDS011;3805;49.006;8.514;2023-11-18T14:38:03;4.80;;;4.40;;
7527;SDS011;3805;49.006;8.514;2023-11-18T14:40:32;5.23;;;4.20;;
7527;SDS011;3805;49.006;8.514;2023-11-18T14:43:00;4.90;;;3.53;;
7527;SDS011;3805;49.006;8.514;2023-11-18T14:45:28;5.37;;;4.10;;
7527;SDS011;3805;49.006;8.514;2023-11-18T14:47:57;3.90;;;3.60;;
7527;SDS011;3805;49.006;8.514;2023-11-18T14:50:26;3.50;;;3.30;;
7527;SDS011;3805;49.006;8.514;2023-11-18T14:52:55;4.30;;;3.90;;
7527;SDS011;3805;49.006;8.514;2023-11-18T14:55:27;4.43;;;4.03;;
7527;SDS011;3805;49.006;8.514;2023-11-18T14:57:56;3.80;;;3.50;;
7527;SDS011;3805;49.006;8.514;2023-11-18T15:00:24;4.23;;;3.83;;
7527;SDS011;3805;49.006;8.514;2023-11-18T15:02:54;3.83;;;3.63;;
7527;SDS011;3805;49.006;8.514;2023-11-18T15:05:28;5.30;;;3.67;;
7527;SDS011;3805;49.006;8.514;2023-11-18T15:07:58;4.17;;;3.43;;
7527;SDS011;3805;49.006;8.514;2023-11-18T15:10:28;5.57;;;4.00;;
7527;SDS011;3805;49.006;8.514;2023-11-18T15:12:56;5.00;;;4.50;;
7527;SDS011;3805;49.006;8.514;2023-11-18T15:15:28;5.47;;;4.97;;
7527;SDS011;3805;49.006;8.514;2023-11-18T15:18:00;7.50;;;5.27;;
7527;SDS011;3805;49.006;8.514;2023-11-18T15:20:33;5.70;;;5.20;;
7527;SDS011;3805;49.006;8.514;2023-11-18T15:23:02;4.50;;;4.10;;
7527;SDS011;3805;49.006;8.514;2023-11-18T15:25:31;5.17;;;4.00;;
7527;SDS011;3805;49.006;8.514;2023-11-18T15:28:01;7.00;;;5.90;;
7527;SDS011;3805;49.006;8.514;2023-11-18T15:30:30;7.30;;;5.83;;
7527;SDS011;3805;49.006;8.514;2023-11-18T15:32:59;5.80;;;5.30;;
7527;SDS011;3805;49.006;8.514;2023-11-18T15:35:28;6.40;;;5.03;;